Time;durP1;ratioP1;P1;durP2;ratioP2;P2;SDS_P1;SDS_P2;PMS_P1;PMS_P2;Temp;Humidity;BMP_temperature;BMP_pressure;BME280_temperature;BME280_humidity;BME280_pressure;Samples;Min_cycle;Max_cycle;Signal;HPM_P1;HPM_P2
2022/01/17 00:01:33;;;;;;;37.00;15.87;;;;;3.30;97331.00;;;;8366867;28;20226;-70
2022/01/17 00:05:36;;;;;;;39.77;15.77;;;;;3.30;97337.00;;;;8359003;28;20238;-72
2022/01/17 00:09:39;;;;;;;37.20;15.83;;;;;3.30;97326.00;;;;8356191;28;20262;-69
2022/01/17 00:13:43;;;;;;;35.17;14.60;;;;;3.40;97292.00;;;;8370290;28;20306;-69
2022/01/17 00:17:51;;;;;;;32.67;14.80;;;;;3.30;97292.00;;;;8360118;28;20311;-73
2022/01/17 00:22:23;;;;;;;35.43;15.50;;;;;3.30;97311.00;;;;8361793;28;20247;-71
2022/01/17 00:26:26;;;;;;;32.30;13.23;;;;;3.30;97323.00;;;;8358951;28;20637;-74
2022/01/17 00:31:05;;;;;;;37.13;14.33;;;;;3.30;97305.00;;;;8361466;28;20645;-75
2022/01/17 00:35:10;;;;;;;35.27;15.07;;;;;3.40;97328.00;;;;8360450;28;20222;-72
2022/01/17 00:39:44;;;;;;;36.50;15.10;;;;;3.40;97329.00;;;;8360120;28;20251;-71
2022/01/17 00:43:47;;;;;;;32.47;14.17;;;;;3.40;97331.00;;;;8361213;28;20251;-74
2022/01/17 00:47:51;;;;;;;30.70;14.33;;;;;3.40;97348.00;;;;8360962;28;20226;-71
2022/01/17 00:52:29;;;;;;;29.73;12.53;;;;;3.40;97338.00;;;;8360578;28;20231;-71
2022/01/17 00:56:32;;;;;;;34.30;15.03;;;;;3.50;97340.00;;;;8360445;28;20669;-71
2022/01/17 01:01:09;;;;;;;33.07;14.27;;;;;3.50;97341.00;;;;8361350;28;20251;-72
2022/01/17 01:05:13;;;;;;;24.93;11.30;;;;;3.50;97339.00;;;;8360145;28;20227;-71
2022/01/17 01:09:18;;;;;;;32.57;14.90;;;;;3.50;97355.00;;;;8360204;28;20234;-71
2022/01/17 01:13:23;;;;;;;30.03;12.90;;;;;3.50;97351.00;;;;8360283;28;20255;-71
2022/01/17 01:17:35;;;;;;;24.13;10.97;;;;;3.50;97337.00;;;;8360549;28;20234;-72
2022/01/17 01:31:53;;;;;;;33.87;13.67;;;;;3.50;97340.00;;;;8226046;28;20730;-72
2022/01/17 01:36:05;;;;;;;33.67;14.93;;;;;3.50;97343.00;;;;8331340;28;20227;-72
2022/01/17 01:40:34;;;;;;;35.20;14.30;;;;;3.50;97338.00;;;;8360315;28;20234;-72
2022/01/17 01:44:38;;;;;;;33.73;14.37;;;;;3.50;97339.00;;;;8360369;28;20227;-73
2022/01/17 01:48:41;;;;;;;32.10;14.53;;;;;3.50;97337.00;;;;8359682;28;20250;-71
2022/01/17 01:53:18;;;;;;;32.93;15.10;;;;;3.50;97341.00;;;;8360411;28;20243;-72
2022/01/17 01:57:22;;;;;;;34.73;15.13;;;;;3.60;97348.00;;;;8359979;28;20231;-73
2022/01/17 02:01:58;;;;;;;32.87;14.80;;;;;3.60;97337.00;;;;8359883;28;20224;-73
2022/01/17 02:06:03;;;;;;;32.73;14.53;;;;;3.60;97327.00;;;;8359913;28;20258;-72
2022/01/17 02:10:37;;;;;;;37.67;15.83;;;;;3.60;97302.00;;;;8359511;28;20255;-71
2022/01/17 02:14:40;;;;;;;29.47;13.80;;;;;3.60;97294.00;;;;8362892;28;20706;-71
2022/01/17 02:18:45;;;;;;;36.37;15.57;;;;;3.60;97308.00;;;;8365766;28;20238;-72
2022/01/17 02:23:18;;;;;;;25.33;11.37;;;;;3.60;97299.00;;;;8364644;28;20234;-72
2022/01/17 02:27:23;;;;;;;35.87;15.90;;;;;3.60;97300.00;;;;8365238;28;20234;-72
2022/01/17 02:31:57;;;;;;;32.90;14.27;;;;;3.60;97297.00;;;;8365109;28;20235;-71
2022/01/17 02:36:00;;;;;;;31.43;14.43;;;;;3.60;97308.00;;;;8365512;28;20538;-72
2022/01/17 02:40:37;;;;;;;27.77;13.93;;;;;3.60;97318.00;;;;8364298;28;20248;-72
2022/01/17 02:44:45;;;;;;;29.33;13.57;;;;;3.70;97316.00;;;;8365052;28;20247;-72
2022/01/17 02:48:48;;;;;;;31.53;13.97;;;;;3.70;97316.00;;;;8364655;28;20246;-72
2022/01/17 02:53:26;;;;;;;26.73;12.13;;;;;3.70;97306.00;;;;8364426;28;20226;-72
2022/01/17 02:57:33;;;;;;;29.03;13.53;;;;;3.70;97296.00;;;;8364240;28;20238;-72
2022/01/17 03:01:37;;;;;;;32.07;13.40;;;;;3.70;97287.00;;;;8390731;22;20239;-71
2022/01/17 03:05:41;;;;;;;31.57;14.17;;;;;3.70;97285.00;;;;8383263;28;20218;-71
2022/01/17 03:09:56;;;;;;;30.03;14.20;;;;;3.70;97261.00;;;;8387918;28;20256;-71
2022/01/17 03:13:59;;;;;;;34.13;14.13;;;;;3.70;97260.00;;;;8404220;28;20250;-71
2022/01/17 03:18:04;;;;;;;34.10;13.30;;;;;3.70;97264.00;;;;8397984;28;20630;-72
2022/01/17 03:22:07;;;;;;;34.73;15.30;;;;;3.70;97262.00;;;;8402868;28;20314;-72
2022/01/17 03:26:11;;;;;;;33.23;15.20;;;;;3.70;97281.00;;;;8409966;28;20342;-72
2022/01/17 03:30:15;;;;;;;29.90;13.93;;;;;3.70;97275.00;;;;8409053;28;20231;-72
2022/01/17 03:34:20;;;;;;;33.50;15.00;;;;;3.70;97284.00;;;;8399279;28;20222;-71
2022/01/17 03:38:26;;;;;;;29.90;14.80;;;;;3.70;97284.00;;;;8390181;28;20325;-72
2022/01/17 03:42:29;;;;;;;35.23;16.07;;;;;3.70;97287.00;;;;8397498;28;20231;-71
2022/01/17 03:46:32;;;;;;;31.33;14.67;;;;;3.70;97284.00;;;;8396132;28;20218;-72
2022/01/17 03:50:37;;;;;;;32.33;15.33;;;;;3.70;97278.00;;;;8398535;28;20675;-71
2022/01/17 03:54:40;;;;;;;32.93;14.80;;;;;3.70;97268.00;;;;8403786;28;20317;-72
2022/01/17 03:58:43;;;;;;;31.83;14.00;;;;;3.70;97237.00;;;;8394765;28;20352;-71
2022/01/17 04:02:48;;;;;;;33.80;15.53;;;;;3.70;97262.00;;;;8381943;28;20850;-72
2022/01/17 04:06:52;;;;;;;35.53;15.27;;;;;3.60;97269.00;;;;8348808;28;20710;-72
2022/01/17 04:10:56;;;;;;;29.10;13.60;;;;;3.70;97267.00;;;;8352655;28;20314;-72
2022/01/17 04:14:59;;;;;;;36.37;15.17;;;;;3.70;97274.00;;;;8358155;28;20298;-71
2022/01/17 04:19:02;;;;;;;29.40;14.30;;;;;3.70;97279.00;;;;8351188;28;20350;-71
2022/01/17 04:23:08;;;;;;;38.77;15.50;;;;;3.60;97285.00;;;;8366725;28;20267;-71
2022/01/17 04:27:11;;;;;;;27.47;13.00;;;;;3.70;97276.00;;;;8377759;28;20292;-71
2022/01/17 04:31:14;;;;;;;27.07;11.93;;;;;3.70;97277.00;;;;8376084;28;20260;-71
2022/01/17 04:35:21;;;;;;;28.07;12.37;;;;;3.70;97264.00;;;;8345713;28;20306;-71
2022/01/17 04:39:26;;;;;;;40.83;15.50;;;;;3.70;97243.00;;;;8350365;28;20323;-71
2022/01/17 04:43:45;;;;;;;30.87;13.47;;;;;3.70;97233.00;;;;8351500;28;20331;-71
2022/01/17 04:47:50;;;;;;;41.90;15.47;;;;;3.60;97243.00;;;;8360969;28;20264;-72
2022/01/17 04:51:54;;;;;;;40.83;15.47;;;;;3.50;97253.00;;;;8353507;28;20639;-71
2022/01/17 04:55:59;;;;;;;42.03;14.83;;;;;3.40;97258.00;;;;8357771;28;20251;-69
2022/01/17 05:00:03;;;;;;;27.33;10.70;;;;;3.50;97265.00;;;;8352009;28;20968;-71
2022/01/17 05:04:07;;;;;;;35.37;16.50;;;;;3.50;97279.00;;;;8361409;28;20807;-70
2022/01/17 05:08:10;;;;;;;41.70;16.80;;;;;3.50;97295.00;;;;8362867;28;20854;-71
2022/01/17 05:12:15;;;;;;;35.47;14.30;;;;;3.50;97277.00;;;;8358340;28;20315;-71
2022/01/17 05:16:20;;;;;;;36.20;15.07;;;;;3.50;97271.00;;;;8351752;28;20225;-71
2022/01/17 05:20:24;;;;;;;42.50;16.13;;;;;3.60;97278.00;;;;8356619;28;20247;-71
2022/01/17 05:24:27;;;;;;;36.43;14.57;;;;;3.60;97289.00;;;;8362917;28;20694;-71
2022/01/17 05:28:31;;;;;;;37.33;14.50;;;;;3.60;97290.00;;;;8353650;28;20315;-70
2022/01/17 05:32:35;;;;;;;36.77;14.33;;;;;3.60;97289.00;;;;8356074;28;20251;-71
2022/01/17 05:36:38;;;;;;;40.00;15.87;;;;;3.60;97277.00;;;;8353552;28;20274;-72
2022/01/17 05:40:42;;;;;;;48.80;18.00;;;;;3.60;97276.00;;;;8352504;28;20254;-73
2022/01/17 05:44:48;;;;;;;46.53;17.23;;;;;3.70;97273.00;;;;8345983;28;20678;-74
2022/01/17 05:48:51;;;;;;;42.07;16.10;;;;;3.70;97265.00;;;;8349663;28;20254;-73
2022/01/17 05:52:55;;;;;;;49.77;18.57;;;;;3.60;97269.00;;;;8351246;28;20231;-74
2022/01/17 05:56:58;;;;;;;41.07;15.13;;;;;3.60;97282.00;;;;8357202;28;20669;-73
2022/01/17 06:01:03;;;;;;;47.97;15.90;;;;;3.60;97271.00;;;;8362217;28;20957;-75
2022/01/17 06:05:08;;;;;;;49.63;17.67;;;;;3.60;97273.00;;;;8360136;28;20236;-76
2022/01/17 06:09:11;;;;;;;50.07;18.10;;;;;3.70;97267.00;;;;8353416;28;20341;-75
2022/01/17 06:13:14;;;;;;;60.90;23.90;;;;;3.70;97260.00;;;;8358991;28;20313;-74
2022/01/17 06:17:18;;;;;;;55.43;23.70;;;;;3.70;97264.00;;;;8356891;28;20305;-73
2022/01/17 06:21:22;;;;;;;81.00;45.57;;;;;3.70;97274.00;;;;8363913;28;20242;-74
2022/01/17 06:25:25;;;;;;;49.23;17.50;;;;;3.70;97262.00;;;;8364490;28;20252;-75
2022/01/17 06:29:28;;;;;;;25.23;10.63;;;;;3.70;97279.00;;;;8358113;28;20228;-73
2022/01/17 06:33:33;;;;;;;59.50;23.00;;;;;3.70;97287.00;;;;8372769;28;20987;-75
2022/01/17 06:37:38;;;;;;;48.33;17.57;;;;;3.80;97288.00;;;;8365495;28;20257;-71
2022/01/17 06:41:42;;;;;;;53.17;19.30;;;;;3.80;97268.00;;;;8355783;28;20253;-74
2022/01/17 06:45:45;;;;;;;42.67;17.00;;;;;3.80;97266.00;;;;8356129;28;20315;-75
2022/01/17 06:49:50;;;;;;;44.67;16.90;;;;;3.80;97284.00;;;;8348895;28;20260;-77
2022/01/17 06:53:54;;;;;;;36.60;13.80;;;;;3.80;97276.00;;;;8359056;28;20231;-75
2022/01/17 06:57:57;;;;;;;30.20;11.97;;;;;3.80;97281.00;;;;8350864;28;20318;-75
2022/01/17 07:02:01;;;;;;;41.33;14.10;;;;;3.70;97272.00;;;;8350902;28;20313;-74
2022/01/17 07:06:05;;;;;;;41.13;15.17;;;;;3.70;97280.00;;;;8354462;28;20310;-76
2022/01/17 07:10:09;;;;;;;44.13;15.30;;;;;3.80;97281.00;;;;8341285;28;20321;-76
2022/01/17 07:14:13;;;;;;;40.73;14.33;;;;;3.70;97315.00;;;;8322229;28;20331;-77
2022/01/17 07:18:16;;;;;;;31.60;12.77;;;;;3.80;97325.00;;;;8354775;28;20308;-75
2022/01/17 07:22:24;;;;;;;31.37;12.10;;;;;3.80;97355.00;;;;8354281;28;20227;-78
2022/01/17 07:26:27;;;;;;;38.20;12.90;;;;;3.80;97379.00;;;;8372218;28;20815;-76
2022/01/17 07:30:31;;;;;;;45.13;16.03;;;;;3.80;97397.00;;;;8358520;28;20660;-76
2022/01/17 07:34:35;;;;;;;42.90;14.83;;;;;3.80;97393.00;;;;8359681;28;20259;-78
2022/01/17 07:38:42;;;;;;;44.27;15.73;;;;;3.90;97348.00;;;;8355205;28;20254;-77
2022/01/17 07:42:45;;;;;;;41.27;13.93;;;;;3.90;97365.00;;;;8350793;28;20312;-80
2022/01/17 07:46:53;;;;;;;36.27;14.50;;;;;3.80;97354.00;;;;8357347;28;20338;-76
2022/01/17 07:50:56;;;;;;;47.23;15.23;;;;;3.80;97343.00;;;;8350349;28;20311;-76
2022/01/17 07:55:01;;;;;;;43.67;14.27;;;;;3.90;97332.00;;;;8360535;28;20338;-79
2022/01/17 07:59:07;;;;;;;38.13;15.07;;;;;3.90;97336.00;;;;8361007;28;20295;-76
2022/01/17 08:03:10;;;;;;;47.63;16.00;;;;;3.90;97318.00;;;;8359817;28;20256;-77
2022/01/17 08:07:15;;;;;;;36.50;13.57;;;;;3.90;97323.00;;;;8350368;28;20757;-79
2022/01/17 08:11:20;;;;;;;31.23;11.73;;;;;3.90;97352.00;;;;8360997;28;20249;-78
2022/01/17 08:15:24;;;;;;;39.90;13.33;;;;;3.90;97351.00;;;;8331360;28;20255;-79
2022/01/17 08:19:28;;;;;;;36.33;13.13;;;;;4.00;97345.00;;;;8366410;28;20234;-78
2022/01/17 08:23:36;;;;;;;122.03;53.40;;;;;3.90;97340.00;;;;8350672;28;21043;-78
2022/01/17 08:27:40;;;;;;;116.57;45.07;;;;;3.90;97337.00;;;;8337311;28;20242;-77
2022/01/17 08:31:46;;;;;;;100.13;36.40;;;;;4.00;97321.00;;;;8349712;28;20256;-73
2022/01/17 08:35:50;;;;;;;37.97;14.43;;;;;4.10;97309.00;;;;8346119;28;20226;-74
2022/01/17 08:40:11;;;;;;;35.83;13.57;;;;;4.10;97303.00;;;;8344257;28;20259;-76
2022/01/17 08:44:19;;;;;;;36.30;13.33;;;;;4.20;97298.00;;;;8350295;28;20246;-77
2022/01/17 08:48:22;;;;;;;31.17;13.03;;;;;4.20;97281.00;;;;8350971;28;20224;-76
2022/01/17 08:52:26;;;;;;;32.27;14.40;;;;;4.30;97290.00;;;;8359443;28;20706;-79
2022/01/17 08:56:30;;;;;;;38.53;20.73;;;;;4.40;97326.00;;;;8341405;28;20639;-82
2022/01/17 09:00:34;;;;;;;78.97;41.30;;;;;4.50;97350.00;;;;8348707;28;20251;-80
2022/01/17 09:04:55;;;;;;;173.27;83.40;;;;;4.60;97356.00;;;;8344870;28;20891;-79
2022/01/17 09:08:58;;;;;;;151.53;72.83;;;;;4.60;97358.00;;;;8348283;28;20258;-82
2022/01/17 09:13:02;;;;;;;169.53;76.43;;;;;4.50;97340.00;;;;8348218;28;20228;-79
2022/01/17 09:17:09;;;;;;;31.00;14.73;;;;;4.50;97358.00;;;;8348960;28;20263;-78
2022/01/17 09:21:12;;;;;;;31.90;20.17;;;;;4.60;97377.00;;;;8346988;28;20662;-79
2022/01/17 09:25:15;;;;;;;21.60;10.33;;;;;4.60;97371.00;;;;8352919;28;20264;-78
2022/01/17 09:29:21;;;;;;;22.83;10.20;;;;;4.70;97383.00;;;;8356419;28;20278;-80
2022/01/17 09:33:26;;;;;;;22.40;10.00;;;;;4.80;97382.00;;;;8349795;28;20257;-78
2022/01/17 09:37:29;;;;;;;18.40;9.37;;;;;5.00;97377.00;;;;8360981;28;20350;-80
2022/01/17 09:41:32;;;;;;;20.37;9.30;;;;;5.00;97372.00;;;;8365555;28;20728;-81
2022/01/17 09:45:37;;;;;;;16.40;7.47;;;;;4.90;97363.00;;;;8349853;28;20224;-80
2022/01/17 09:49:48;;;;;;;19.37;8.17;;;;;4.90;97400.00;;;;8344172;28;20759;-77
2022/01/17 09:53:53;;;;;;;19.13;10.00;;;;;4.80;97383.00;;;;8353292;28;20245;-78
2022/01/17 09:58:02;;;;;;;19.17;8.67;;;;;4.80;97398.00;;;;8353875;28;21069;-76
2022/01/17 10:02:06;;;;;;;19.37;9.87;;;;;4.80;97384.00;;;;8352399;28;20237;-77
2022/01/17 10:06:11;;;;;;;14.67;7.43;;;;;4.80;97402.00;;;;8350870;28;20222;-74
2022/01/17 10:10:14;;;;;;;17.60;9.30;;;;;4.80;97413.00;;;;8351845;28;20269;-73
2022/01/17 10:14:25;;;;;;;17.33;9.43;;;;;5.00;97407.00;;;;8361346;28;20302;-73
2022/01/17 10:18:40;;;;;;;26.17;8.13;;;;;5.00;97402.00;;;;8358234;28;20232;-73
2022/01/17 10:22:52;;;;;;;17.03;9.33;;;;;5.00;97391.00;;;;8350552;28;20235;-75
2022/01/17 10:34:52;;;;;;;15.83;7.53;;;;;5.10;97404.00;;;;8352668;28;20255;-74
2022/01/17 10:35:50;;;;;;;15.10;8.20;;;;;5.10;97409.00;;;;8350948;28;20220;-74
2022/01/17 10:39:59;;;;;;;16.67;8.67;;;;;5.00;97412.00;;;;8350780;28;20228;-73
2022/01/17 10:44:02;;;;;;;14.47;7.10;;;;;4.90;97423.00;;;;8357926;28;20676;-74
2022/01/17 10:48:06;;;;;;;13.60;7.40;;;;;4.90;97420.00;;;;8370070;28;20239;-75
2022/01/17 10:52:13;;;;;;;15.10;7.50;;;;;4.90;97422.00;;;;8354730;28;20286;-74
2022/01/17 10:56:18;;;;;;;14.20;7.53;;;;;4.90;97426.00;;;;8366671;28;20231;-75
2022/01/17 11:00:23;;;;;;;13.40;6.47;;;;;4.90;97431.00;;;;8351412;28;20251;-74
2022/01/17 11:04:37;;;;;;;13.30;6.80;;;;;4.90;97430.00;;;;8350776;28;20315;-73
2022/01/17 11:08:42;;;;;;;16.77;8.20;;;;;4.90;97425.00;;;;8350284;28;20232;-74
2022/01/17 11:12:47;;;;;;;15.90;7.03;;;;;5.00;97423.00;;;;8345582;28;20232;-74
2022/01/17 11:16:50;;;;;;;12.97;6.80;;;;;5.10;97433.00;;;;8338853;28;20692;-75
2022/01/17 11:20:55;;;;;;;11.53;6.90;;;;;5.00;97430.00;;;;8337752;28;20315;-74
2022/01/17 11:24:58;;;;;;;14.30;5.93;;;;;5.10;97424.00;;;;8341313;28;20343;-77
2022/01/17 11:29:03;;;;;;;11.13;5.57;;;;;5.10;97403.00;;;;8339048;28;20760;-76
2022/01/17 11:33:12;;;;;;;9.53;4.87;;;;;5.10;97400.00;;;;8334754;28;20335;-75
2022/01/17 11:37:16;;;;;;;12.80;6.10;;;;;5.20;97384.00;;;;8345700;28;20625;-74
2022/01/17 11:41:25;;;;;;;14.10;7.03;;;;;5.20;97403.00;;;;8339902;28;20311;-72
2022/01/17 11:45:47;;;;;;;11.53;6.00;;;;;5.20;97389.00;;;;8342364;28;20772;-74
2022/01/17 11:49:56;;;;;;;13.60;6.23;;;;;5.20;97380.00;;;;8351087;28;21149;-78
2022/01/17 11:54:12;;;;;;;20.03;11.23;;;;;5.20;97334.00;;;;8335757;28;20651;-76
2022/01/17 11:58:21;;;;;;;13.03;8.30;;;;;5.20;97351.00;;;;8345137;28;20256;-76
2022/01/17 12:02:33;;;;;;;24.00;13.63;;;;;5.30;97389.00;;;;8339826;28;20311;-80
2022/01/17 12:06:38;;;;;;;36.97;24.43;;;;;5.30;97373.00;;;;8339303;28;20256;-78
2022/01/17 12:10:49;;;;;;;9.80;6.63;;;;;5.30;97365.00;;;;8343655;28;20777;-76
2022/01/17 12:15:05;;;;;;;22.97;14.30;;;;;5.30;97376.00;;;;8343645;28;20255;-81
2022/01/17 12:19:11;;;;;;;10.83;6.63;;;;;5.30;97370.00;;;;8348191;28;20278;-81
2022/01/17 12:23:25;;;;;;;15.67;7.67;;;;;5.30;97369.00;;;;8344242;28;20260;-81
2022/01/17 12:27:29;;;;;;;10.67;6.17;;;;;5.30;97339.00;;;;8340203;28;20319;-79
2022/01/17 12:31:44;;;;;;;11.47;6.67;;;;;5.30;97343.00;;;;8354074;28;20233;-80
2022/01/17 12:35:49;;;;;;;11.43;7.20;;;;;5.40;97333.00;;;;8341499;28;20232;-82
2022/01/17 12:39:53;;;;;;;12.37;6.90;;;;;5.40;97359.00;;;;8342729;28;20267;-82
2022/01/17 12:43:56;;;;;;;15.63;7.10;;;;;5.50;97348.00;;;;8349836;28;20316;-79
2022/01/17 12:48:02;;;;;;;14.20;8.03;;;;;5.50;97332.00;;;;8349127;28;20233;-79
2022/01/17 12:52:07;;;;;;;13.73;7.20;;;;;5.50;97323.00;;;;8349371;28;20330;-83
2022/01/17 12:56:11;;;;;;;14.30;7.73;;;;;5.40;97338.00;;;;8356687;28;20248;-82
2022/01/17 13:00:20;;;;;;;17.83;11.43;;;;;5.50;97331.00;;;;8348379;28;20337;-82
2022/01/17 13:04:23;;;;;;;16.63;11.37;;;;;5.50;97336.00;;;;8347971;28;20228;-79
2022/01/17 13:08:28;;;;;;;16.33;11.07;;;;;5.50;97345.00;;;;8341654;28;20239;-81
2022/01/17 13:12:33;;;;;;;11.53;7.00;;;;;5.50;97343.00;;;;8344891;28;20355;-83
2022/01/17 13:16:38;;;;;;;15.23;6.60;;;;;5.60;97317.00;;;;8347533;28;20259;-78
2022/01/17 13:20:41;;;;;;;11.47;6.37;;;;;5.60;97331.00;;;;8344141;28;20669;-78
2022/01/17 13:24:54;;;;;;;9.07;5.60;;;;;5.60;97328.00;;;;8344498;28;20224;-78
2022/01/17 13:28:59;;;;;;;13.17;5.87;;;;;5.50;97312.00;;;;8348129;28;20298;-77
2022/01/17 13:33:04;;;;;;;8.60;5.43;;;;;5.50;97304.00;;;;8347840;28;20653;-77
2022/01/17 13:37:11;;;;;;;9.43;5.63;;;;;5.40;97326.00;;;;8343647;28;20235;-79
2022/01/17 13:41:32;;;;;;;13.17;6.70;;;;;5.40;97322.00;;;;8354490;28;20222;-80
2022/01/17 13:45:39;;;;;;;10.33;5.27;;;;;5.40;97314.00;;;;8351308;28;20251;-80
2022/01/17 13:49:45;;;;;;;11.17;5.77;;;;;5.40;97343.00;;;;8347793;28;20231;-75
2022/01/17 13:53:48;;;;;;;14.57;5.83;;;;;5.30;97349.00;;;;8343434;28;20827;-82
2022/01/17 13:57:59;;;;;;;10.87;5.90;;;;;5.40;97331.00;;;;8355475;28;20737;-83
2022/01/17 14:02:13;;;;;;;13.70;7.23;;;;;5.30;97343.00;;;;8353264;28;20696;-81
2022/01/17 14:06:19;;;;;;;12.07;6.30;;;;;5.20;97325.00;;;;8348423;28;20228;-80
2022/01/17 14:10:32;;;;;;;13.63;6.53;;;;;5.10;97328.00;;;;8349156;28;20228;-81
2022/01/17 14:14:37;;;;;;;15.87;8.73;;;;;5.00;97324.00;;;;8353932;28;20222;-81
2022/01/17 14:18:44;;;;;;;21.37;12.87;;;;;4.90;97319.00;;;;8353711;28;20322;-84
2022/01/17 14:23:10;;;;;;;12.00;7.60;;;;;4.80;97314.00;;;;8347762;28;20235;-82
2022/01/17 14:27:18;;;;;;;9.17;5.27;;;;;4.70;97305.00;;;;8353877;28;20299;-82
2022/01/17 14:31:23;;;;;;;14.83;6.77;;;;;4.60;97322.00;;;;8350445;28;20223;-82
2022/01/17 14:35:26;;;;;;;12.70;6.37;;;;;4.60;97324.00;;;;8346060;28;20315;-80
2022/01/17 14:39:32;;;;;;;16.77;7.23;;;;;4.50;97332.00;;;;8354676;28;20913;-80
2022/01/17 14:43:36;;;;;;;18.73;6.80;;;;;4.40;97331.00;;;;8345844;28;20252;-84
2022/01/17 14:47:43;;;;;;;15.50;7.27;;;;;4.40;97345.00;;;;8352374;28;20239;-84
2022/01/17 14:51:48;;;;;;;9.97;6.03;;;;;4.40;97361.00;;;;8348775;28;20749;-82
2022/01/17 15:00:16;;;;;;;19.43;10.93;;;;;4.20;97378.00;;;;8372328;28;20244;-79
2022/01/17 15:04:21;;;;;;;17.67;8.00;;;;;4.20;97373.00;;;;8347283;28;20381;-78
2022/01/17 15:08:25;;;;;;;15.10;7.30;;;;;4.20;97382.00;;;;8357854;28;20319;-78
2022/01/17 15:12:29;;;;;;;16.60;6.50;;;;;4.10;97370.00;;;;8376390;28;20872;-79
2022/01/17 15:16:33;;;;;;;9.80;5.17;;;;;4.10;97368.00;;;;8343766;28;20231;-78
2022/01/17 15:20:41;;;;;;;12.80;6.13;;;;;4.00;97375.00;;;;8358090;28;20231;-78
2022/01/17 15:24:44;;;;;;;9.87;6.23;;;;;4.00;97392.00;;;;8349738;28;20272;-78
2022/01/17 15:28:48;;;;;;;11.17;5.30;;;;;4.00;97406.00;;;;8355438;28;20254;-78
2022/01/17 15:32:52;;;;;;;9.30;5.20;;;;;4.00;97422.00;;;;8346970;28;20360;-79
2022/01/17 15:36:56;;;;;;;12.43;6.23;;;;;4.00;97423.00;;;;8348876;28;20263;-78
2022/01/17 15:41:00;;;;;;;12.50;5.83;;;;;4.00;97417.00;;;;8355243;28;20247;-79
2022/01/17 15:45:04;;;;;;;17.07;6.03;;;;;3.90;97437.00;;;;8352209;28;20254;-79
2022/01/17 15:49:07;;;;;;;12.23;6.40;;;;;4.00;97441.00;;;;8335701;28;20720;-83
2022/01/17 15:53:12;;;;;;;13.57;6.53;;;;;3.90;97449.00;;;;8361763;28;20322;-82
2022/01/17 15:57:15;;;;;;;16.80;7.47;;;;;3.90;97454.00;;;;8357966;28;20701;-83
2022/01/17 16:01:19;;;;;;;16.83;5.93;;;;;3.80;97466.00;;;;8352686;28;20259;-79
2022/01/17 16:05:22;;;;;;;11.00;6.03;;;;;3.80;97470.00;;;;8349384;28;20226;-78
2022/01/17 16:09:27;;;;;;;13.87;6.53;;;;;3.70;97471.00;;;;8349997;28;20256;-79
2022/01/17 16:13:30;;;;;;;9.50;5.27;;;;;3.70;97473.00;;;;8341615;28;20218;-79
2022/01/17 16:17:34;;;;;;;14.33;6.97;;;;;3.70;97468.00;;;;8354329;28;20322;-78
2022/01/17 16:21:39;;;;;;;16.17;7.30;;;;;3.60;97472.00;;;;8347709;28;20348;-79
2022/01/17 16:25:45;;;;;;;9.33;5.40;;;;;3.60;97448.00;;;;8363767;28;20227;-78
2022/01/17 16:29:51;;;;;;;16.70;6.60;;;;;3.60;97460.00;;;;8351215;28;20710;-77
2022/01/17 16:33:56;;;;;;;16.20;6.70;;;;;3.60;97463.00;;;;8351071;28;20241;-78
2022/01/17 16:38:00;;;;;;;10.20;5.43;;;;;3.60;97473.00;;;;8347424;28;20317;-77
2022/01/17 16:42:06;;;;;;;10.97;6.07;;;;;3.60;97481.00;;;;8343920;28;20300;-79
2022/01/17 16:46:16;;;;;;;17.43;7.50;;;;;3.60;97480.00;;;;8338133;28;20222;-78
2022/01/17 16:50:23;;;;;;;15.80;6.90;;;;;3.60;97492.00;;;;8347855;28;20631;-77
2022/01/17 16:54:26;;;;;;;12.23;5.63;;;;;3.60;97495.00;;;;8347140;28;20228;-78
2022/01/17 16:58:31;;;;;;;16.03;6.80;;;;;3.60;97495.00;;;;8342175;28;20621;-77
2022/01/17 17:02:35;;;;;;;17.50;7.97;;;;;3.70;97501.00;;;;8351085;28;20312;-76
2022/01/17 17:06:38;;;;;;;24.60;8.40;;;;;3.70;97515.00;;;;8343332;28;20754;-77
2022/01/17 17:10:47;;;;;;;18.47;8.60;;;;;3.70;97496.00;;;;8345808;28;20247;-78
2022/01/17 17:14:58;;;;;;;13.47;7.30;;;;;3.70;97504.00;;;;8339516;28;20705;-78
2022/01/17 17:19:05;;;;;;;18.93;8.40;;;;;3.70;97512.00;;;;8338871;28;20270;-78
2022/01/17 17:23:09;;;;;;;18.70;7.63;;;;;3.80;97518.00;;;;8345801;28;20325;-78
2022/01/17 17:27:12;;;;;;;14.30;6.70;;;;;3.80;97515.00;;;;8342947;28;20592;-79
2022/01/17 17:31:17;;;;;;;18.07;8.17;;;;;3.80;97519.00;;;;8346261;28;20484;-79
2022/01/17 17:35:20;;;;;;;19.33;8.07;;;;;3.80;97519.00;;;;8349941;28;20259;-78
2022/01/17 17:39:24;;;;;;;17.93;7.97;;;;;3.80;97520.00;;;;8345917;28;20235;-78
2022/01/17 17:43:27;;;;;;;23.73;8.73;;;;;3.80;97522.00;;;;8344513;28;20673;-78
2022/01/17 17:47:52;;;;;;;12.43;5.63;;;;;3.80;97538.00;;;;8350355;28;20223;-78
2022/01/17 17:51:56;;;;;;;14.87;6.70;;;;;3.90;97538.00;;;;8351156;28;20315;-77
2022/01/17 17:56:01;;;;;;;14.57;6.50;;;;;3.90;97545.00;;;;8350953;28;20251;-77
2022/01/17 18:00:05;;;;;;;18.47;7.70;;;;;3.90;97570.00;;;;8348788;28;20238;-77
2022/01/17 18:04:10;;;;;;;26.10;8.70;;;;;3.90;97569.00;;;;8350605;28;20234;-77
2022/01/17 18:08:17;;;;;;;21.27;9.07;;;;;3.90;97573.00;;;;8360699;28;20227;-77
2022/01/17 18:12:20;;;;;;;20.23;7.87;;;;;3.90;97580.00;;;;8370837;28;20254;-76
2022/01/17 18:16:25;;;;;;;19.20;6.77;;;;;4.00;97582.00;;;;8345818;28;20238;-77
2022/01/17 18:20:30;;;;;;;21.47;8.30;;;;;4.00;97575.00;;;;8361635;28;20231;-77
2022/01/17 18:24:34;;;;;;;19.20;7.80;;;;;4.00;97579.00;;;;8365308;28;20314;-77
2022/01/17 18:28:37;;;;;;;21.80;7.53;;;;;4.00;97584.00;;;;8351786;28;20831;-76
2022/01/17 18:32:41;;;;;;;20.47;7.97;;;;;4.10;97589.00;;;;8350874;28;20256;-76
2022/01/17 18:36:47;;;;;;;19.40;8.00;;;;;4.10;97584.00;;;;8361113;28;20318;-75
2022/01/17 18:40:50;;;;;;;22.60;8.50;;;;;4.10;97592.00;;;;8366341;28;20308;-76
2022/01/17 18:44:54;;;;;;;20.80;8.17;;;;;4.10;97598.00;;;;8356105;28;20343;-77
2022/01/17 18:48:59;;;;;;;18.97;7.90;;;;;4.10;97606.00;;;;8347942;28;20351;-76
2022/01/17 18:53:10;;;;;;;19.90;9.47;;;;;4.10;97600.00;;;;8343492;28;20319;-77
2022/01/17 18:57:16;;;;;;;45.80;25.80;;;;;4.10;97604.00;;;;8348041;28;20762;-77
2022/01/17 19:01:20;;;;;;;18.30;7.97;;;;;4.10;97596.00;;;;8360917;28;20315;-76
2022/01/17 19:05:24;;;;;;;32.67;11.17;;;;;4.20;97591.00;;;;8352979;28;20231;-75
2022/01/17 19:09:29;;;;;;;29.13;10.70;;;;;4.20;97607.00;;;;8353418;28;20260;-75
2022/01/17 19:13:33;;;;;;;20.90;8.90;;;;;4.20;97611.00;;;;8347330;28;20263;-76
2022/01/17 19:17:52;;;;;;;17.90;6.93;;;;;4.20;97609.00;;;;8356720;28;20219;-75
2022/01/17 19:21:56;;;;;;;23.70;9.40;;;;;4.20;97603.00;;;;8353816;28;20729;-75
2022/01/17 19:26:01;;;;;;;21.20;9.43;;;;;4.20;97607.00;;;;8347441;28;20235;-75
2022/01/17 19:30:05;;;;;;;16.37;6.80;;;;;4.30;97617.00;;;;8355418;28;20274;-75
2022/01/17 19:34:09;;;;;;;26.67;11.60;;;;;4.20;97613.00;;;;8350206;28;20330;-75
2022/01/17 19:38:12;;;;;;;23.27;9.40;;;;;4.30;97617.00;;;;8348561;28;20231;-76
2022/01/17 19:42:17;;;;;;;29.77;10.77;;;;;4.30;97618.00;;;;8347993;28;20223;-76
2022/01/17 19:46:21;;;;;;;80.73;41.17;;;;;4.40;97631.00;;;;8349169;28;20664;-76
2022/01/17 19:50:28;;;;;;;35.97;15.63;;;;;4.40;97639.00;;;;8350894;28;20227;-77
2022/01/17 19:54:31;;;;;;;33.53;14.70;;;;;4.40;97640.00;;;;8345770;28;20331;-78
2022/01/17 19:58:36;;;;;;;27.13;9.90;;;;;4.40;97650.00;;;;8351074;28;20275;-75
2022/01/17 20:02:40;;;;;;;19.93;9.10;;;;;4.40;97642.00;;;;8349972;28;20282;-76
2022/01/17 20:06:43;;;;;;;26.77;10.90;;;;;4.40;97656.00;;;;8339319;28;20331;-78
2022/01/17 20:10:49;;;;;;;23.53;10.70;;;;;4.40;97670.00;;;;8353871;28;20237;-77
2022/01/17 20:14:54;;;;;;;32.47;11.83;;;;;4.40;97683.00;;;;8354777;28;20243;-75
2022/01/17 20:19:00;;;;;;;24.03;9.13;;;;;4.50;97695.00;;;;8335510;28;20331;-76
2022/01/17 20:23:04;;;;;;;23.13;10.13;;;;;4.40;97691.00;;;;8345072;28;20230;-75
2022/01/17 20:27:07;;;;;;;23.73;10.10;;;;;4.40;97693.00;;;;8344199;28;20267;-76
2022/01/17 20:31:12;;;;;;;25.03;10.47;;;;;4.40;97709.00;;;;8341236;28;20673;-76
2022/01/17 20:35:17;;;;;;;24.40;9.07;;;;;4.40;97713.00;;;;8349046;28;20231;-76
2022/01/17 20:39:20;;;;;;;26.47;9.77;;;;;4.30;97705.00;;;;8346282;28;20303;-76
2022/01/17 20:43:23;;;;;;;27.80;9.63;;;;;4.30;97725.00;;;;8347193;28;20311;-76
2022/01/17 20:47:28;;;;;;;29.73;9.70;;;;;4.30;97720.00;;;;8345716;28;20227;-75